Airfield :
LOGIN :

Register | Disclaimer

   EN    FR    IT 

 










Legend :    VFR   Marginal VFR   IFR   Intensive IFR   Very Intensive IFR
Visi :
Ceiling :
>= 8 km
>= 3000ft
5 to 8 km
1000 to 3000 ft
1500m to 5 km
500 to 1000 ft
800 to 1500m
200 to 500 ft
< 800m
< 200 ft
Symbols :   Thunderstorms  Fog  Heavy snow  Heavy precipitations  Wind > 20 kt
SIGMETs :     Misc.  Thunderstorms  Icing  Turbulence  Mountain Waves  Volcanic Ashes







- Airport Elevation : 308 ft
- IATA code : POZ


EPPO - Poznan-Lawica

CURRENT METAR :
  • 111730Z 32006KT 9999 BKN009 03/02 Q1013 R10/29//95

EXPIRED METARs :
  • 111700Z 32006KT 9999 BKN010 03/02 Q1013 R10/29//95
  • 111630Z 32007KT 9999 BKN010 03/02 Q1012 R10/29//95
  • 111600Z 31008KT 9999 BKN007 02/02 Q1012 R10/29//95
  • 111530Z 30008KT 9999 BKN007 02/02 Q1012 R10/29//95
  • 111500Z 31007KT 9999 BKN008 02/02 Q1012 R10/29//95
  • 111430Z 31008KT 9999 SCT008 03/02 Q1011 R10/29//95

TAF TAF EPPO
Valid from the 11 at 12:00 until the 12 at 12:00 UTC


111130Z 1112/1212 32010KT 9999 SCT007 OVC017
TEMPO 1112/1121 SHRA BKN005 BKN014CB
TEMPO 1121/1124 3000 SHRASN BKN005 BKN013CB
BECMG 1200/1202 02007KT
TEMPO 1200/1212 1200 SHSN BKN004 BKN010CB
No reported NOTAMs for that airfield.



MET'MAP, your aeronautical weather chart ! - Copyright ORBIFLY December 2007 - Disclaimer

ORBIFLY MET'MAP TEAM :

Programming & Development : Alexandra Zaïnal
Concept & Development : Baudouin d'Aumeries
Co-Development & Prog : Marc-Olivier Méhu
Technical & hardware support : Manuel Goepfert

Contact : metmap@orbifly.com




SOURCES & CREDITS :

   NOAA